Time;durP1;ratioP1;P1;durP2;ratioP2;P2;SDS_P1;SDS_P2;PMS_P1;PMS_P2;Temp;Humidity;BMP_temperature;BMP_pressure;BME280_temperature;BME280_humidity;BME280_pressure;Samples;Min_cycle;Max_cycle;Signal;HPM_P1;HPM_P2
2022/01/07 00:00:26;;;;;;;;;;;;;;;7.57;37.35;100134.63;4468202;31;34404;-68
2022/01/07 00:03:10;;;;;;;;;;;;;;;8.08;35.07;100121.94;4468208;32;33685;-69
2022/01/07 00:05:37;;;;;;;;;;;;;;;8.30;34.21;100121.53;4464971;32;34862;-68
2022/01/07 00:08:05;;;;;;;;;;;;;;;7.95;35.05;100132.47;4468046;32;34105;-67
2022/01/07 00:10:32;;;;;;;;;;;;;;;8.10;34.46;100139.56;4467445;32;35098;-70
2022/01/07 00:12:59;;;;;;;;;;;;;;;8.20;34.10;100144.38;4475439;32;33491;-71
2022/01/07 00:15:27;;;;;;;;;;;;;;;7.74;34.39;100152.31;4465340;32;35163;-70
2022/01/07 00:17:54;;;;;;;;;;;;;;;7.75;35.66;100156.72;4470530;32;34447;-71
2022/01/07 00:20:22;;;;;;;;;;;;;;;7.62;36.09;100156.56;4475259;32;34739;-72
2022/01/07 00:22:49;;;;;;;;;;;;;;;8.13;34.65;100154.53;4465068;32;33542;-70
2022/01/07 00:25:16;;;;;;;;;;;;;;;8.16;34.50;100149.03;4465874;32;35137;-72
2022/01/07 00:27:44;;;;;;;;;;;;;;;8.32;34.24;100149.84;4477818;31;34330;-70
2022/01/07 00:30:12;;;;;;;;;;;;;;;8.45;33.61;100150.00;4470115;32;33849;-71
2022/01/07 00:32:39;;;;;;;;;;;;;;;8.22;33.83;100153.13;4468661;32;32370;-71
2022/01/07 00:35:07;;;;;;;;;;;;;;;8.16;34.32;100155.22;4474741;32;33813;-69
2022/01/07 00:37:34;;;;;;;;;;;;;;;7.93;34.61;100161.88;4466910;32;34212;-68
2022/01/07 00:40:03;;;;;;;;;;;;;;;7.85;34.48;100165.91;4472946;32;33901;-70
2022/01/07 00:42:30;;;;;;;;;;;;;;;8.07;34.44;100157.56;4470817;31;34629;-68
2022/01/07 00:44:58;;;;;;;;;;;;;;;7.43;38.06;100162.91;4470912;32;32926;-69
2022/01/07 00:47:25;;;;;;;;;;;;;;;8.03;35.44;100166.69;4470036;32;33004;-69
2022/01/07 00:49:52;;;;;;;;;;;;;;;7.89;35.44;100156.78;4469700;31;35166;-68
2022/01/07 00:52:20;;;;;;;;;;;;;;;7.84;35.74;100164.22;4468653;32;34213;-68
2022/01/07 00:54:47;;;;;;;;;;;;;;;7.61;36.46;100153.03;4470984;31;34099;-69
2022/01/07 00:57:15;;;;;;;;;;;;;;;7.80;35.78;100147.53;4475866;32;36060;-69
2022/01/07 00:59:44;;;;;;;;;;;;;;;7.53;36.13;100157.06;4475356;32;34369;-69
2022/01/07 01:02:12;;;;;;;;;;;;;;;7.64;36.28;100158.19;4466352;32;32271;-70
2022/01/07 01:04:42;;;;;;;;;;;;;;;7.06;37.42;100155.19;4476811;32;33968;-69
2022/01/07 01:07:10;;;;;;;;;;;;;;;7.57;36.55;100151.47;4470092;32;35061;-69
2022/01/07 01:09:38;;;;;;;;;;;;;;;7.68;37.15;100141.09;4470227;32;34332;-69
2022/01/07 01:12:06;;;;;;;;;;;;;;;7.23;37.55;100128.53;4481144;32;32243;-71
2022/01/07 01:14:33;;;;;;;;;;;;;;;7.12;37.71;100134.41;4476762;32;34264;-69
2022/01/07 01:17:01;;;;;;;;;;;;;;;7.22;38.25;100137.44;4471519;32;33186;-71
2022/01/07 01:19:28;;;;;;;;;;;;;;;6.95;38.84;100142.47;4477940;32;34349;-69
2022/01/07 01:21:56;;;;;;;;;;;;;;;6.97;39.63;100129.94;4468587;32;33083;-69
2022/01/07 01:24:23;;;;;;;;;;;;;;;7.18;39.34;100130.56;4473322;32;34287;-68
2022/01/07 01:26:51;;;;;;;;;;;;;;;6.36;41.24;100120.72;4465830;32;34584;-69
2022/01/07 01:29:20;;;;;;;;;;;;;;;6.32;39.69;100115.63;4468434;31;34561;-71
2022/01/07 01:31:48;;;;;;;;;;;;;;;5.89;43.32;100112.47;4476545;32;34654;-69
2022/01/07 01:34:16;;;;;;;;;;;;;;;5.70;44.03;100116.00;4474229;32;34941;-70
2022/01/07 01:36:43;;;;;;;;;;;;;;;5.86;41.57;100124.09;4478237;32;35188;-71
2022/01/07 01:39:12;;;;;;;;;;;;;;;6.16;41.33;100121.72;4467329;32;35214;-71
2022/01/07 01:41:42;;;;;;;;;;;;;;;5.05;41.95;100134.12;4467753;32;33582;-70
2022/01/07 01:44:10;;;;;;;;;;;;;;;5.83;41.09;100122.44;4468221;32;34019;-71
2022/01/07 01:46:38;;;;;;;;;;;;;;;6.07;41.01;100128.37;4475506;32;34578;-71
2022/01/07 01:49:05;;;;;;;;;;;;;;;6.56;40.03;100130.34;4470920;31;34002;-72
2022/01/07 01:51:33;;;;;;;;;;;;;;;6.19;39.84;100131.34;4468699;32;33451;-71
2022/01/07 01:54:00;;;;;;;;;;;;;;;5.26;41.76;100136.72;4467114;32;34019;-70
2022/01/07 01:56:28;;;;;;;;;;;;;;;6.08;40.02;100142.53;4467376;32;34018;-71
2022/01/07 01:58:55;;;;;;;;;;;;;;;5.84;40.54;100149.84;4467539;32;35546;-71
2022/01/07 02:01:23;;;;;;;;;;;;;;;6.00;40.01;100158.87;4467386;32;34684;-70
2022/01/07 02:03:50;;;;;;;;;;;;;;;5.95;40.17;100157.38;4474153;32;33983;-71
2022/01/07 02:06:18;;;;;;;;;;;;;;;5.73;39.86;100170.78;4470676;31;33090;-71
2022/01/07 02:08:45;;;;;;;;;;;;;;;5.07;41.67;100166.78;4473193;32;35246;-71
2022/01/07 02:11:12;;;;;;;;;;;;;;;5.88;40.71;100178.03;4466206;32;34579;-71
2022/01/07 02:13:40;;;;;;;;;;;;;;;5.87;39.54;100184.25;4471256;32;32903;-71
2022/01/07 02:16:07;;;;;;;;;;;;;;;6.34;39.11;100180.22;4471600;32;33980;-71
2022/01/07 02:18:36;;;;;;;;;;;;;;;6.23;39.75;100188.75;4466513;32;33318;-71
2022/01/07 02:21:03;;;;;;;;;;;;;;;6.52;39.18;100179.31;4475306;32;34486;-73
2022/01/07 02:23:32;;;;;;;;;;;;;;;6.89;38.22;100177.38;4471651;32;33142;-72
2022/01/07 02:25:59;;;;;;;;;;;;;;;6.82;38.35;100176.84;4473767;32;34489;-72
2022/01/07 02:28:27;;;;;;;;;;;;;;;7.18;36.54;100189.16;4466566;32;35281;-74
2022/01/07 02:30:54;;;;;;;;;;;;;;;6.99;37.69;100186.59;4469814;32;32240;-73
2022/01/07 02:33:22;;;;;;;;;;;;;;;6.75;38.74;100180.78;4472697;32;34156;-72
2022/01/07 02:35:49;;;;;;;;;;;;;;;6.64;38.60;100186.63;4477997;32;33832;-72
2022/01/07 02:38:17;;;;;;;;;;;;;;;7.29;36.24;100184.13;4469965;32;34561;-72
2022/01/07 02:40:45;;;;;;;;;;;;;;;7.07;37.57;100187.06;4472756;32;33774;-73
2022/01/07 02:43:12;;;;;;;;;;;;;;;6.99;37.03;100191.91;4467047;32;33689;-73
2022/01/07 02:45:40;;;;;;;;;;;;;;;7.61;35.61;100190.34;4472668;32;34525;-72
2022/01/07 02:48:07;;;;;;;;;;;;;;;7.53;35.76;100184.56;4478663;32;32709;-73
2022/01/07 02:50:36;;;;;;;;;;;;;;;7.59;35.33;100181.56;4473855;31;33634;-71
2022/01/07 02:53:04;;;;;;;;;;;;;;;7.65;36.18;100185.69;4472808;32;32822;-72
2022/01/07 02:55:32;;;;;;;;;;;;;;;7.67;35.93;100181.12;4480697;31;32586;-72
2022/01/07 02:57:59;;;;;;;;;;;;;;;7.36;36.29;100179.31;4480434;32;33540;-71
2022/01/07 03:00:27;;;;;;;;;;;;;;;7.89;35.65;100173.63;4474449;32;33401;-71
2022/01/07 03:02:55;;;;;;;;;;;;;;;7.82;36.00;100166.09;4472503;32;33224;-71
2022/01/07 03:05:23;;;;;;;;;;;;;;;8.14;34.34;100167.75;4464452;32;34376;-72
2022/01/07 03:07:51;;;;;;;;;;;;;;;7.98;35.12;100166.06;4472329;32;34486;-71
2022/01/07 03:10:19;;;;;;;;;;;;;;;8.29;34.75;100170.50;4477454;31;33428;-72
2022/01/07 03:12:47;;;;;;;;;;;;;;;8.10;34.90;100163.56;4466772;32;35083;-72
2022/01/07 03:15:14;;;;;;;;;;;;;;;8.16;34.76;100171.22;4472156;32;35326;-72
2022/01/07 03:17:42;;;;;;;;;;;;;;;8.36;34.04;100164.69;4470298;31;33974;-72
2022/01/07 03:20:11;;;;;;;;;;;;;;;8.49;33.44;100178.22;4467955;32;33861;-71
2022/01/07 03:22:39;;;;;;;;;;;;;;;8.41;33.82;100175.16;4468465;32;34301;-72
2022/01/07 03:25:07;;;;;;;;;;;;;;;8.59;33.21;100170.53;4473583;32;34205;-71
2022/01/07 03:27:34;;;;;;;;;;;;;;;8.59;32.79;100179.37;4468937;32;34446;-72
2022/01/07 03:30:01;;;;;;;;;;;;;;;8.34;33.57;100200.41;4479102;32;34314;-72
2022/01/07 03:32:29;;;;;;;;;;;;;;;8.28;33.60;100198.97;4475231;32;34104;-73
2022/01/07 03:34:56;;;;;;;;;;;;;;;8.52;33.10;100198.53;4471178;32;34053;-72
2022/01/07 03:37:23;;;;;;;;;;;;;;;8.60;32.32;100206.91;4464145;32;34082;-72
2022/01/07 03:39:51;;;;;;;;;;;;;;;8.23;32.79;100208.19;4467981;32;33196;-72
2022/01/07 03:42:18;;;;;;;;;;;;;;;8.12;33.89;100217.66;4468515;32;35033;-80
2022/01/07 03:44:45;;;;;;;;;;;;;;;8.04;34.89;100211.91;4473378;31;34023;-71
2022/01/07 03:47:13;;;;;;;;;;;;;;;8.40;33.70;100203.59;4464782;32;34432;-73
2022/01/07 03:49:40;;;;;;;;;;;;;;;8.73;32.33;100204.38;4472626;32;34415;-72
2022/01/07 03:52:08;;;;;;;;;;;;;;;8.70;33.96;100202.78;4470336;32;35072;-70
2022/01/07 03:54:35;;;;;;;;;;;;;;;8.62;33.75;100205.88;4472985;31;34454;-70
2022/01/07 03:57:03;;;;;;;;;;;;;;;8.70;32.68;100210.78;4468367;32;34202;-74
2022/01/07 03:59:30;;;;;;;;;;;;;;;8.83;32.20;100203.75;4465031;32;33770;-74
2022/01/07 04:01:58;;;;;;;;;;;;;;;8.23;33.25;100213.53;4472043;32;32404;-71
2022/01/07 04:04:25;;;;;;;;;;;;;;;8.75;31.91;100208.69;4472526;32;33834;-71
2022/01/07 04:06:53;;;;;;;;;;;;;;;8.74;32.90;100212.31;4466833;32;35425;-72
2022/01/07 04:09:20;;;;;;;;;;;;;;;8.71;33.21;100215.16;4478634;32;33300;-73
2022/01/07 04:11:47;;;;;;;;;;;;;;;8.91;33.14;100213.09;4473323;32;34000;-72
2022/01/07 04:14:15;;;;;;;;;;;;;;;9.06;32.30;100205.03;4471657;32;34314;-72
2022/01/07 04:16:42;;;;;;;;;;;;;;;9.18;32.10;100205.19;4470145;32;34466;-72
2022/01/07 04:19:10;;;;;;;;;;;;;;;9.25;31.16;100203.91;4466334;32;34064;-70
2022/01/07 04:21:37;;;;;;;;;;;;;;;9.33;30.94;100206.94;4465002;32;37241;-71
2022/01/07 04:24:04;;;;;;;;;;;;;;;9.08;32.06;100212.91;4478466;32;33953;-72
2022/01/07 04:26:32;;;;;;;;;;;;;;;9.19;32.50;100205.12;4470316;31;33247;-72
2022/01/07 04:28:59;;;;;;;;;;;;;;;9.16;32.57;100205.31;4468735;32;33564;-71
2022/01/07 04:31:26;;;;;;;;;;;;;;;9.33;31.96;100205.12;4471042;32;34831;-74
2022/01/07 04:33:54;;;;;;;;;;;;;;;9.51;31.33;100204.94;4474318;31;35725;-71
2022/01/07 04:36:21;;;;;;;;;;;;;;;9.37;31.77;100211.13;4471427;32;34688;-73
2022/01/07 04:38:48;;;;;;;;;;;;;;;9.60;30.85;100214.16;4464045;32;33300;-75
2022/01/07 04:41:16;;;;;;;;;;;;;;;9.59;30.58;100207.09;4465483;32;35523;-70
2022/01/07 04:43:43;;;;;;;;;;;;;;;9.45;31.98;100211.50;4472895;32;34212;-73
2022/01/07 04:46:11;;;;;;;;;;;;;;;9.18;31.39;100216.78;4469079;32;34049;-73
2022/01/07 04:48:38;;;;;;;;;;;;;;;8.20;33.21;100227.03;4464720;32;33017;-72
2022/01/07 04:51:05;;;;;;;;;;;;;;;8.96;31.19;100230.56;4472771;32;34055;-72
2022/01/07 04:53:33;;;;;;;;;;;;;;;8.94;32.18;100227.13;4472697;32;34961;-75
2022/01/07 04:56:01;;;;;;;;;;;;;;;9.03;31.82;100221.22;4471641;32;34376;-72
2022/01/07 04:58:28;;;;;;;;;;;;;;;8.80;32.96;100232.44;4466628;32;33581;-73
2022/01/07 05:00:55;;;;;;;;;;;;;;;9.05;32.22;100231.78;4477056;32;33915;-73
2022/01/07 05:03:23;;;;;;;;;;;;;;;9.07;32.40;100222.75;4473078;32;34230;-73
2022/01/07 05:06:01;;;;;;;;;;;;;;;9.21;31.83;100229.06;4469686;32;34232;-72
2022/01/07 05:08:29;;;;;;;;;;;;;;;9.21;31.42;100229.06;4474609;32;34451;-71
2022/01/07 05:10:56;;;;;;;;;;;;;;;8.90;32.64;100230.06;4474126;31;33648;-79
2022/01/07 05:13:24;;;;;;;;;;;;;;;9.12;32.06;100224.28;4474194;32;35114;-77
2022/01/07 05:15:51;;;;;;;;;;;;;;;9.09;31.96;100223.53;4469446;32;34376;-75
2022/01/07 05:18:18;;;;;;;;;;;;;;;9.09;32.17;100214.66;4469008;32;33577;-72
2022/01/07 05:20:48;;;;;;;;;;;;;;;9.26;31.00;100217.13;4473224;31;34315;-71
2022/01/07 05:23:15;;;;;;;;;;;;;;;9.28;30.10;100212.56;4466264;32;34625;-71
2022/01/07 05:25:42;;;;;;;;;;;;;;;8.95;31.25;100222.63;4472595;32;34442;-72
2022/01/07 05:28:10;;;;;;;;;;;;;;;9.25;29.98;100215.44;4468803;32;33676;-72
2022/01/07 05:30:37;;;;;;;;;;;;;;;9.15;30.17;100222.31;4470483;32;35296;-73
2022/01/07 05:33:04;;;;;;;;;;;;;;;8.58;32.19;100231.03;4471085;31;35457;-73
2022/01/07 05:35:31;;;;;;;;;;;;;;;8.60;31.81;100236.25;4471746;32;33918;-73
2022/01/07 05:37:59;;;;;;;;;;;;;;;9.09;30.78;100228.00;4472277;31;32064;-73
2022/01/07 05:40:26;;;;;;;;;;;;;;;8.93;31.21;100229.91;4470586;32;34407;-73
2022/01/07 05:42:53;;;;;;;;;;;;;;;8.45;32.47;100237.19;4466375;32;33348;-73
2022/01/07 05:45:21;;;;;;;;;;;;;;;8.90;30.88;100235.41;4469403;32;35205;-72
2022/01/07 05:47:48;;;;;;;;;;;;;;;8.88;31.11;100226.63;4471057;32;34551;-69
2022/01/07 05:50:16;;;;;;;;;;;;;;;8.96;30.64;100225.22;4464168;32;34194;-70
2022/01/07 05:52:43;;;;;;;;;;;;;;;8.57;31.65;100233.78;4464846;32;35100;-71
2022/01/07 05:55:10;;;;;;;;;;;;;;;9.09;30.08;100244.03;4465064;32;35088;-68
2022/01/07 05:57:38;;;;;;;;;;;;;;;8.98;29.48;100238.47;4466422;32;33143;-71
2022/01/07 06:00:06;;;;;;;;;;;;;;;8.62;30.81;100239.72;4470460;32;35133;-70
2022/01/07 06:02:38;;;;;;;;;;;;;;;8.09;31.48;100252.50;4468914;32;34490;-71
2022/01/07 06:05:06;;;;;;;;;;;;;;;8.34;31.50;100232.41;4473238;32;34400;-71
2022/01/07 06:07:33;;;;;;;;;;;;;;;8.72;30.72;100232.03;4467610;32;33452;-73
2022/01/07 06:10:00;;;;;;;;;;;;;;;8.71;29.75;100246.31;4463592;32;35138;-71
2022/01/07 06:12:28;;;;;;;;;;;;;;;8.78;29.96;100242.34;4475900;32;35098;-71
2022/01/07 06:14:55;;;;;;;;;;;;;;;8.73;30.25;100249.75;4469220;31;35042;-69
2022/01/07 06:17:23;;;;;;;;;;;;;;;8.46;30.02;100255.75;4470977;32;33807;-71
2022/01/07 06:19:50;;;;;;;;;;;;;;;8.33;30.23;100263.56;4474428;32;34157;-71
2022/01/07 06:22:18;;;;;;;;;;;;;;;8.06;32.38;100255.34;4475840;31;34123;-70
2022/01/07 06:24:45;;;;;;;;;;;;;;;8.22;31.44;100251.78;4470581;32;34408;-70
2022/01/07 06:27:12;;;;;;;;;;;;;;;7.69;32.54;100257.37;4472076;31;33477;-69
2022/01/07 06:29:44;;;;;;;;;;;;;;;8.41;30.79;100257.84;4465046;32;33483;-70
2022/01/07 06:32:12;;;;;;;;;;;;;;;7.89;32.66;100260.72;4472428;31;34219;-71
2022/01/07 06:34:39;;;;;;;;;;;;;;;8.26;31.69;100262.22;4468323;32;34407;-70
2022/01/07 06:37:08;;;;;;;;;;;;;;;8.14;32.24;100263.75;4465821;32;33461;-70
2022/01/07 06:39:35;;;;;;;;;;;;;;;8.51;30.76;100277.69;4465222;32;33027;-71
2022/01/07 06:42:04;;;;;;;;;;;;;;;8.57;29.98;100268.47;4471955;32;33989;-71
2022/01/07 06:44:31;;;;;;;;;;;;;;;8.60;30.88;100270.94;4472831;32;35521;-71
2022/01/07 06:46:58;;;;;;;;;;;;;;;8.27;30.62;100274.59;4473045;32;33678;-71
2022/01/07 06:49:25;;;;;;;;;;;;;;;8.59;29.72;100267.44;4474749;31;32653;-70
2022/01/07 06:51:54;;;;;;;;;;;;;;;8.60;30.64;100274.50;4472498;32;32435;-71
2022/01/07 06:54:21;;;;;;;;;;;;;;;9.06;29.22;100273.59;4467787;31;35436;-70
2022/01/07 06:56:48;;;;;;;;;;;;;;;9.84;27.98;100271.44;4465403;32;33593;-70
2022/01/07 06:59:16;;;;;;;;;;;;;;;10.53;28.19;100272.34;4465455;32;33347;-70
2022/01/07 07:01:45;;;;;;;;;;;;;;;11.07;26.41;100282.13;4474612;32;35506;-71
2022/01/07 07:04:12;;;;;;;;;;;;;;;11.66;25.30;100269.94;4470088;32;34519;-71
2022/01/07 07:06:39;;;;;;;;;;;;;;;11.58;26.54;100276.78;4471221;32;33681;-71
2022/01/07 07:09:07;;;;;;;;;;;;;;;12.75;23.71;100288.00;4473061;32;33939;-71
2022/01/07 07:11:34;;;;;;;;;;;;;;;13.22;23.38;100278.97;4469445;32;34403;-72
2022/01/07 07:14:01;;;;;;;;;;;;;;;13.94;22.98;100283.25;4464610;32;34112;-70
2022/01/07 07:16:29;;;;;;;;;;;;;;;14.21;22.33;100280.16;4473157;32;31985;-70
2022/01/07 07:18:56;;;;;;;;;;;;;;;14.03;22.26;100278.94;4470251;32;34138;-68
2022/01/07 07:21:24;;;;;;;;;;;;;;;14.45;22.78;100274.59;4476668;31;33179;-70
2022/01/07 07:23:51;;;;;;;;;;;;;;;15.60;21.49;100278.31;4471809;32;34047;-69
2022/01/07 07:26:18;;;;;;;;;;;;;;;15.30;21.19;100287.25;4478426;31;34577;-69
2022/01/07 07:28:47;;;;;;;;;;;;;;;14.25;22.81;100275.38;4473483;32;34215;-68
2022/01/07 07:31:17;;;;;;;;;;;;;;;13.68;23.55;100288.00;4473531;31;35283;-68
2022/01/07 07:36:29;;;;;;;;;;;;;;;13.64;23.42;100284.72;4475845;32;33057;-68
2022/01/07 07:38:57;;;;;;;;;;;;;;;13.18;24.29;100285.56;4466369;32;34415;-68
2022/01/07 07:41:25;;;;;;;;;;;;;;;13.28;23.16;100296.50;4472251;32;32768;-71
2022/01/07 07:43:52;;;;;;;;;;;;;;;13.52;22.97;100291.91;4469962;32;35547;-68
2022/01/07 07:46:20;;;;;;;;;;;;;;;14.53;22.09;100288.31;4469754;32;33122;-68
2022/01/07 07:48:48;;;;;;;;;;;;;;;15.63;21.31;100288.84;4480255;32;34692;-69
2022/01/07 07:51:15;;;;;;;;;;;;;;;16.52;20.19;100289.06;4471467;32;34160;-69
2022/01/07 07:53:42;;;;;;;;;;;;;;;16.94;19.58;100289.69;4476492;32;33874;-69
2022/01/07 07:56:11;;;;;;;;;;;;;;;16.77;19.93;100288.56;4472533;32;33428;-71
2022/01/07 07:58:38;;;;;;;;;;;;;;;16.62;19.38;100291.78;4477089;32;33016;-72
2022/01/07 08:01:06;;;;;;;;;;;;;;;16.91;18.73;100286.41;4474859;32;32583;-72
2022/01/07 08:03:33;;;;;;;;;;;;;;;16.93;19.96;100285.28;4474854;32;34281;-72
2022/01/07 08:06:00;;;;;;;;;;;;;;;17.66;18.44;100296.44;4472598;32;33866;-73
2022/01/07 08:08:28;;;;;;;;;;;;;;;18.00;17.91;100286.94;4475281;32;33937;-72
2022/01/07 08:10:59;;;;;;;;;;;;;;;17.79;18.84;100289.88;4476086;32;35300;-72
2022/01/07 08:16:19;;;;;;;;;;;;;;;17.56;18.49;100292.03;4449269;32;33477;-72
2022/01/07 08:18:48;;;;;;;;;;;;;;;17.35;19.18;100290.38;4473411;32;34119;-73
2022/01/07 08:21:16;;;;;;;;;;;;;;;17.19;19.70;100298.22;4476376;32;34784;-72
2022/01/07 08:23:43;;;;;;;;;;;;;;;17.26;19.29;100302.06;4473173;32;34090;-72
2022/01/07 08:26:11;;;;;;;;;;;;;;;17.91;18.98;100308.50;4476233;32;33438;-73
2022/01/07 08:28:44;;;;;;;;;;;;;;;18.77;18.18;100310.91;4477856;32;34143;-72
2022/01/07 08:36:33;;;;;;;;;;;;;;;19.59;16.90;100306.19;4474894;32;34603;-73
2022/01/07 08:39:00;;;;;;;;;;;;;;;18.94;17.20;100305.63;4473377;32;34220;-72
2022/01/07 08:41:29;;;;;;;;;;;;;;;18.88;17.59;100299.00;4468486;32;35036;-73
2022/01/07 08:43:56;;;;;;;;;;;;;;;17.92;19.01;100296.66;4468141;32;34515;-73
2022/01/07 08:46:24;;;;;;;;;;;;;;;16.62;20.03;100310.69;4467986;32;33423;-73
2022/01/07 08:48:51;;;;;;;;;;;;;;;16.98;19.69;100309.19;4468455;32;34282;-73
2022/01/07 08:51:19;;;;;;;;;;;;;;;17.53;18.88;100305.84;4470663;32;33149;-73
2022/01/07 08:53:50;;;;;;;;;;;;;;;17.46;19.31;100303.75;4474688;32;32758;-73
2022/01/07 08:56:18;;;;;;;;;;;;;;;17.89;18.95;100307.78;4475546;32;34509;-73
2022/01/07 08:58:46;;;;;;;;;;;;;;;16.85;20.05;100325.69;4472922;32;34951;-73
2022/01/07 09:01:13;;;;;;;;;;;;;;;16.02;20.57;100319.63;4474893;32;33421;-72
2022/01/07 09:03:41;;;;;;;;;;;;;;;16.49;19.80;100319.06;4474468;32;34453;-72
2022/01/07 09:06:08;;;;;;;;;;;;;;;15.81;21.09;100310.72;4475197;32;32420;-73
2022/01/07 09:08:35;;;;;;;;;;;;;;;15.89;20.63;100313.59;4471023;32;33696;-72
2022/01/07 09:11:03;;;;;;;;;;;;;;;15.74;21.54;100314.94;4476447;32;34326;-73
2022/01/07 09:13:30;;;;;;;;;;;;;;;16.13;20.81;100304.31;4471075;32;34580;-76
2022/01/07 09:15:57;;;;;;;;;;;;;;;16.40;20.51;100303.66;4475433;32;34570;-71
2022/01/07 09:18:26;;;;;;;;;;;;;;;17.02;20.15;100294.41;4474278;32;33865;-71
2022/01/07 09:20:54;;;;;;;;;;;;;;;16.46;20.09;100300.41;4477666;32;32954;-71
2022/01/07 09:23:21;;;;;;;;;;;;;;;17.81;18.97;100290.56;4468333;32;34678;-71
2022/01/07 09:25:49;;;;;;;;;;;;;;;18.70;17.51;100285.38;4472607;32;34306;-74
2022/01/07 09:28:17;;;;;;;;;;;;;;;17.05;18.53;100285.16;4471833;32;35125;-72
2022/01/07 09:30:45;;;;;;;;;;;;;;;18.27;18.42;100281.53;4469224;32;34300;-69
2022/01/07 09:33:12;;;;;;;;;;;;;;;18.05;18.23;100292.75;4468070;32;35211;-70
2022/01/07 09:35:40;;;;;;;;;;;;;;;18.05;16.92;100282.78;4465710;32;33609;-74
2022/01/07 09:38:07;;;;;;;;;;;;;;;17.16;17.01;100279.56;4472987;32;32480;-72
2022/01/07 09:40:34;;;;;;;;;;;;;;;18.75;15.43;100279.53;4477893;32;34371;-72
2022/01/07 09:43:03;;;;;;;;;;;;;;;15.02;19.04;100288.72;4473242;32;34477;-74
2022/01/07 09:45:31;;;;;;;;;;;;;;;16.59;17.48;100273.97;4469379;32;34521;-73
2022/01/07 09:47:59;;;;;;;;;;;;;;;16.41;17.65;100265.72;4474345;32;32490;-73
2022/01/07 09:50:28;;;;;;;;;;;;;;;15.84;18.07;100261.84;4473046;32;35139;-73
2022/01/07 09:52:55;;;;;;;;;;;;;;;17.62;16.84;100256.25;4476170;32;34922;-74
2022/01/07 09:55:23;;;;;;;;;;;;;;;18.19;16.27;100254.31;4474033;32;33235;-72
2022/01/07 09:57:50;;;;;;;;;;;;;;;18.55;15.32;100260.66;4473740;32;34156;-72
2022/01/07 10:00:17;;;;;;;;;;;;;;;17.67;16.10;100249.41;4471510;32;34385;-72
2022/01/07 10:03:05;;;;;;;;;;;;;;;18.73;15.75;100247.13;4473004;32;35280;-72
2022/01/07 10:05:39;;;;;;;;;;;;;;;18.32;15.87;100251.25;4476191;32;33089;-73
2022/01/07 10:08:15;;;;;;;;;;;;;;;19.01;15.17;100244.34;4473427;32;35003;-73
2022/01/07 10:10:43;;;;;;;;;;;;;;;13.24;19.85;100254.66;4474845;32;34719;-73
2022/01/07 10:13:10;;;;;;;;;;;;;;;15.56;18.22;100247.22;4478285;32;35616;-75
2022/01/07 10:15:39;;;;;;;;;;;;;;;15.24;19.59;100247.31;4470550;32;33711;-74
2022/01/07 10:18:07;;;;;;;;;;;;;;;14.96;20.58;100241.59;4475374;32;33843;-75
2022/01/07 10:20:40;;;;;;;;;;;;;;;14.21;19.96;100239.75;4470284;32;34358;-76
2022/01/07 10:23:09;;;;;;;;;;;;;;;14.76;19.88;100239.72;4474686;32;34595;-71
2022/01/07 10:25:37;;;;;;;;;;;;;;;13.27;21.37;100235.66;4477470;32;33538;-72
2022/01/07 10:28:06;;;;;;;;;;;;;;;15.48;19.48;100226.31;4472812;32;34185;-72
2022/01/07 10:30:35;;;;;;;;;;;;;;;16.05;18.62;100227.56;4473564;32;34203;-70
2022/01/07 10:33:14;;;;;;;;;;;;;;;16.53;18.36;100223.19;4476351;32;33803;-72
2022/01/07 10:35:42;;;;;;;;;;;;;;;17.32;17.66;100219.47;4475354;32;34540;-70
2022/01/07 10:38:09;;;;;;;;;;;;;;;16.50;18.25;100218.06;4472486;32;33429;-70
2022/01/07 10:40:37;;;;;;;;;;;;;;;15.75;19.01;100206.00;4472751;32;33110;-71
2022/01/07 10:43:11;;;;;;;;;;;;;;;15.51;19.23;100212.56;4479169;32;34295;-70
2022/01/07 10:45:39;;;;;;;;;;;;;;;16.29;18.23;100204.72;4474015;32;33700;-70
2022/01/07 10:48:07;;;;;;;;;;;;;;;14.90;20.62;100193.63;4476706;32;34112;-70
2022/01/07 10:51:00;;;;;;;;;;;;;;;12.63;22.48;100198.44;4473482;32;35366;-70
2022/01/07 10:53:28;;;;;;;;;;;;;;;10.24;25.08;100207.31;4473130;32;32797;-71
2022/01/07 10:55:57;;;;;;;;;;;;;;;12.15;23.40;100192.25;4477716;32;33456;-69
2022/01/07 10:58:25;;;;;;;;;;;;;;;11.30;23.48;100201.03;4472692;32;34077;-71
2022/01/07 11:00:52;;;;;;;;;;;;;;;9.80;26.11;100195.06;4471329;32;34104;-72
2022/01/07 11:03:20;;;;;;;;;;;;;;;11.23;23.97;100188.16;4477032;32;34417;-72
2022/01/07 11:05:47;;;;;;;;;;;;;;;13.33;21.93;100186.78;4473543;32;33358;-72
2022/01/07 11:08:15;;;;;;;;;;;;;;;14.15;21.21;100181.88;4471683;32;34119;-72
2022/01/07 11:10:42;;;;;;;;;;;;;;;15.51;19.15;100174.78;4475594;32;34806;-73
2022/01/07 11:13:10;;;;;;;;;;;;;;;15.87;19.30;100174.38;4478705;32;35747;-72
2022/01/07 11:15:37;;;;;;;;;;;;;;;15.72;18.74;100166.63;4473782;32;33692;-72
2022/01/07 11:18:05;;;;;;;;;;;;;;;12.99;21.48;100178.63;4474665;32;34063;-72
2022/01/07 11:20:32;;;;;;;;;;;;;;;12.99;21.79;100161.66;4474860;32;34346;-73
2022/01/07 11:22:59;;;;;;;;;;;;;;;13.34;20.69;100155.37;4477441;32;33411;-72
2022/01/07 11:25:31;;;;;;;;;;;;;;;14.07;19.72;100179.00;4466287;32;34488;-71
2022/01/07 11:27:59;;;;;;;;;;;;;;;12.88;21.03;100159.81;4472117;32;32838;-71
2022/01/07 11:30:32;;;;;;;;;;;;;;;11.63;22.38;100165.56;4475851;32;34168;-71
2022/01/07 11:33:00;;;;;;;;;;;;;;;13.91;20.78;100162.41;4473213;32;33995;-75
2022/01/07 11:35:27;;;;;;;;;;;;;;;14.44;20.09;100147.16;4471928;32;32440;-74
2022/01/07 11:37:55;;;;;;;;;;;;;;;11.84;22.48;100154.25;4475425;32;35172;-75
2022/01/07 11:40:32;;;;;;;;;;;;;;;13.12;23.54;100154.34;4477098;32;34057;-72
2022/01/07 11:43:04;;;;;;;;;;;;;;;11.41;24.85;100149.31;4472648;32;33695;-72
2022/01/07 11:45:35;;;;;;;;;;;;;;;10.41;24.87;100155.41;4467455;32;34325;-72
2022/01/07 11:48:08;;;;;;;;;;;;;;;11.05;25.25;100145.63;4467121;32;34823;-70
2022/01/07 11:50:59;;;;;;;;;;;;;;;11.32;24.21;100125.88;4476163;32;34160;-71
2022/01/07 11:53:36;;;;;;;;;;;;;;;11.46;24.33;100149.88;4467178;32;34684;-69
2022/01/07 11:56:03;;;;;;;;;;;;;;;8.68;27.96;100129.09;4473599;32;33020;-69
2022/01/07 11:58:41;;;;;;;;;;;;;;;9.40;27.29;100138.78;4467986;32;32919;-72
2022/01/07 12:01:32;;;;;;;;;;;;;;;7.77;29.80;100137.06;4470808;32;34249;-68
2022/01/07 12:04:00;;;;;;;;;;;;;;;7.61;29.74;100131.72;4462755;32;35510;-68
2022/01/07 12:06:33;;;;;;;;;;;;;;;9.61;28.57;100133.91;4469562;32;31915;-68
2022/01/07 12:09:09;;;;;;;;;;;;;;;9.98;27.56;100134.16;4475515;32;33848;-68
2022/01/07 12:11:40;;;;;;;;;;;;;;;9.33;27.98;100118.78;4476298;32;32853;-71
2022/01/07 12:14:15;;;;;;;;;;;;;;;9.25;27.72;100121.09;4460123;32;32912;-71
2022/01/07 12:16:43;;;;;;;;;;;;;;;8.08;29.18;100119.28;4467990;32;32662;-69
2022/01/07 12:19:11;;;;;;;;;;;;;;;9.13;27.83;100119.19;4475458;32;34147;-70
2022/01/07 12:21:39;;;;;;;;;;;;;;;9.82;27.57;100118.28;4471641;32;32667;-68
2022/01/07 12:24:06;;;;;;;;;;;;;;;10.49;27.08;100124.47;4475063;32;33781;-71
2022/01/07 12:26:34;;;;;;;;;;;;;;;9.23;27.63;100109.62;4473535;32;33575;-71
2022/01/07 12:29:02;;;;;;;;;;;;;;;9.31;27.42;100104.69;4476779;32;35135;-69
2022/01/07 12:31:29;;;;;;;;;;;;;;;9.74;27.23;100112.59;4467333;32;32700;-72
2022/01/07 12:33:58;;;;;;;;;;;;;;;9.19;27.43;100102.78;4463073;32;32680;-73
2022/01/07 12:36:25;;;;;;;;;;;;;;;10.03;26.99;100099.97;4467321;32;32801;-72
2022/01/07 12:39:04;;;;;;;;;;;;;;;9.94;28.15;100088.06;4468096;31;34375;-70
2022/01/07 12:41:31;;;;;;;;;;;;;;;10.22;27.59;100084.37;4469403;32;34033;-69
2022/01/07 12:44:08;;;;;;;;;;;;;;;10.98;27.27;100089.91;4469196;32;34499;-71
2022/01/07 12:46:35;;;;;;;;;;;;;;;10.28;26.56;100082.31;4466788;32;33624;-69
2022/01/07 12:49:03;;;;;;;;;;;;;;;9.72;26.62;100080.59;4471230;32;33062;-69
2022/01/07 12:51:30;;;;;;;;;;;;;;;8.45;28.20;100087.81;4465495;32;33213;-69
2022/01/07 12:53:59;;;;;;;;;;;;;;;9.51;28.53;100080.19;4466561;31;32890;-70
2022/01/07 12:56:26;;;;;;;;;;;;;;;10.12;26.36;100077.94;4456648;32;33183;-75
2022/01/07 12:58:54;;;;;;;;;;;;;;;8.25;29.06;100078.28;4464457;32;34927;-71